Ana Sayfa
METAR-TAF:

METAR-TAF

Havaalanları :

Quakertown Airport

Quakertown, Pensilvanya, Amerika Birleşik Devletleri

Enlem: 40-26-06N, Boylam: 075-22-54W, yükseklik: 160 m

Güncel hava durumu gözlemi

Rapor saat 05:15 UTC de 33 dakika önce yapıldı.
Rüzgar batı/kuzeybatıdan 8 kt ve 14 kt'a kadar ani rüzgarlar, batı ve kuzey/kuzeybatı arasında değişken
Sıcaklık 9°C
Nem 40%
Basınç 1006 hPa
Görüş mesafesi: 16.1 km
11000 ft yükseklikte az bulutlu

METAR: KUKT 030515Z AUTO 30008G14KT 270V330 10SM FEW110 09/M04 A2970 RMK A01

Saat: 01:48 (05:48 UTC)


TAF: eksik

4.000'den fazla havaalanı için hava durumu gözlemleri ve tahminleri (METAR ve TAF raporları).

Kullanılabilir istasyonlar harita üzerinde sarı ve kırmızı noktalarla gösterilir.

İstasyonun adını görmek için fareyi noktanın üzerinde gezdirin.

Sonrasında hava gözlem ve tahminlerini görmek için tıklayın.

Haritayı değiştirmek için: yaklaştırmak için siyah artı işaretli yeşil düğmeye ve uzaklaştırmak için de eksi işaretli düğmeye hızla tıklayın; bitişik haritalar için yeşil okları kullanın.


METAR-TAF: